sensor_id;sensor_type;location;lat;lon;timestamp;pressure;altitude;pressure_sealevel;temperature;humidity
56719;BME280;42597;40.636;0.278;2022-08-03T00:01:37;97227.28;;;26.99;57.66
56719;BME280;42597;40.636;0.278;2022-08-03T00:04:04;97228.84;;;26.78;58.27
56719;BME280;42597;40.636;0.278;2022-08-03T00:06:30;97224.31;;;26.72;57.86
56719;BME280;42597;40.636;0.278;2022-08-03T00:08:56;97215.72;;;26.57;58.89
56719;BME280;42597;40.636;0.278;2022-08-03T00:11:22;97218.63;;;26.19;57.40
56719;BME280;42597;40.636;0.278;2022-08-03T00:13:48;97214.16;;;26.34;58.81
56719;BME280;42597;40.636;0.278;2022-08-03T00:16:14;97211.94;;;26.64;56.43
56719;BME280;42597;40.636;0.278;2022-08-03T00:18:40;97203.56;;;26.54;59.04
56719;BME280;42597;40.636;0.278;2022-08-03T00:21:06;97203.25;;;27.05;57.40
56719;BME280;42597;40.636;0.278;2022-08-03T00:23:32;97200.16;;;26.50;56.19
56719;BME280;42597;40.636;0.278;2022-08-03T00:25:58;97190.75;;;26.70;58.63
56719;BME280;42597;40.636;0.278;2022-08-03T00:28:24;97188.75;;;26.70;56.75
56719;BME280;42597;40.636;0.278;2022-08-03T00:30:50;97191.84;;;26.50;54.07
56719;BME280;42597;40.636;0.278;2022-08-03T00:33:15;97184.09;;;26.67;58.25
56719;BME280;42597;40.636;0.278;2022-08-03T00:35:41;97179.34;;;26.46;54.01
56719;BME280;42597;40.636;0.278;2022-08-03T00:38:07;97189.16;;;25.90;52.52
56719;BME280;42597;40.636;0.278;2022-08-03T00:40:33;97174.19;;;26.22;52.43
56719;BME280;42597;40.636;0.278;2022-08-03T00:43:01;97170.25;;;26.11;52.86
56719;BME280;42597;40.636;0.278;2022-08-03T00:45:33;97165.50;;;26.33;52.26
56719;BME280;42597;40.636;0.278;2022-08-03T00:48:00;97172.31;;;26.19;52.06
56719;BME280;42597;40.636;0.278;2022-08-03T00:50:28;97165.00;;;26.25;56.39
56719;BME280;42597;40.636;0.278;2022-08-03T00:52:55;97150.84;;;26.45;51.40
56719;BME280;42597;40.636;0.278;2022-08-03T00:55:22;97157.41;;;26.61;52.75
56719;BME280;42597;40.636;0.278;2022-08-03T00:57:48;97157.06;;;26.15;55.03
56719;BME280;42597;40.636;0.278;2022-08-03T01:00:17;97146.16;;;26.20;53.34
56719;BME280;42597;40.636;0.278;2022-08-03T01:02:43;97155.59;;;26.23;56.00
56719;BME280;42597;40.636;0.278;2022-08-03T01:05:09;97141.53;;;26.17;53.95
56719;BME280;42597;40.636;0.278;2022-08-03T01:10:36;97137.63;;;25.93;55.98
56719;BME280;42597;40.636;0.278;2022-08-03T01:13:30;97129.28;;;25.58;53.67
56719;BME280;42597;40.636;0.278;2022-08-03T01:16:05;97123.81;;;26.49;53.92
56719;BME280;42597;40.636;0.278;2022-08-03T01:18:53;97125.31;;;26.06;53.00
56719;BME280;42597;40.636;0.278;2022-08-03T01:30:03;97122.75;;;26.34;53.83
56719;BME280;42597;40.636;0.278;2022-08-03T01:32:38;97118.47;;;26.42;53.62
56719;BME280;42597;40.636;0.278;2022-08-03T01:35:12;97121.69;;;26.19;54.65
56719;BME280;42597;40.636;0.278;2022-08-03T01:37:54;97123.88;;;26.02;54.75
56719;BME280;42597;40.636;0.278;2022-08-03T01:40:21;97127.66;;;25.95;56.50
56719;BME280;42597;40.636;0.278;2022-08-03T01:42:49;97122.75;;;25.52;55.82
56719;BME280;42597;40.636;0.278;2022-08-03T01:45:17;97119.44;;;25.57;53.94
56719;BME280;42597;40.636;0.278;2022-08-03T01:47:44;97121.19;;;25.64;52.73
56719;BME280;42597;40.636;0.278;2022-08-03T01:50:11;97112.41;;;25.18;53.96
56719;BME280;42597;40.636;0.278;2022-08-03T01:52:39;97111.44;;;25.72;53.90
56719;BME280;42597;40.636;0.278;2022-08-03T01:55:07;97107.50;;;26.17;53.80
56719;BME280;42597;40.636;0.278;2022-08-03T01:57:34;97106.69;;;26.29;53.64
56719;BME280;42597;40.636;0.278;2022-08-03T02:00:02;97098.03;;;25.83;53.05
56719;BME280;42597;40.636;0.278;2022-08-03T02:02:29;97102.81;;;26.04;55.21
56719;BME280;42597;40.636;0.278;2022-08-03T02:04:57;97106.38;;;26.27;53.40
56719;BME280;42597;40.636;0.278;2022-08-03T02:07:25;97105.59;;;25.70;53.38
56719;BME280;42597;40.636;0.278;2022-08-03T02:09:53;97100.59;;;25.77;56.20
56719;BME280;42597;40.636;0.278;2022-08-03T02:12:22;97100.44;;;26.16;54.30
56719;BME280;42597;40.636;0.278;2022-08-03T02:14:49;97103.66;;;26.14;54.42
56719;BME280;42597;40.636;0.278;2022-08-03T02:17:17;97106.03;;;26.25;54.05
56719;BME280;42597;40.636;0.278;2022-08-03T02:19:44;97103.06;;;26.41;54.04
56719;BME280;42597;40.636;0.278;2022-08-03T02:22:12;97104.50;;;26.24;52.47
56719;BME280;42597;40.636;0.278;2022-08-03T02:24:38;97107.00;;;26.09;53.12
56719;BME280;42597;40.636;0.278;2022-08-03T02:27:17;97106.69;;;26.29;53.86
56719;BME280;42597;40.636;0.278;2022-08-03T02:29:45;97106.34;;;26.05;54.15
56719;BME280;42597;40.636;0.278;2022-08-03T02:32:16;97108.28;;;25.95;54.58
56719;BME280;42597;40.636;0.278;2022-08-03T02:34:46;97102.78;;;26.17;52.88
56719;BME280;42597;40.636;0.278;2022-08-03T02:37:13;97104.50;;;26.24;54.17
56719;BME280;42597;40.636;0.278;2022-08-03T02:39:43;97104.50;;;26.02;54.22
56719;BME280;42597;40.636;0.278;2022-08-03T02:42:10;97098.91;;;25.80;54.06
56719;BME280;42597;40.636;0.278;2022-08-03T02:44:39;97105.50;;;25.95;54.03
56719;BME280;42597;40.636;0.278;2022-08-03T02:47:09;97097.78;;;25.90;54.47
56719;BME280;42597;40.636;0.278;2022-08-03T02:49:37;97092.31;;;25.52;55.61
56719;BME280;42597;40.636;0.278;2022-08-03T02:52:04;97094.66;;;25.53;55.67
56719;BME280;42597;40.636;0.278;2022-08-03T02:54:36;97089.06;;;25.79;54.72
56719;BME280;42597;40.636;0.278;2022-08-03T02:57:03;97089.25;;;25.50;54.96
56719;BME280;42597;40.636;0.278;2022-08-03T02:59:30;97086.25;;;25.44;54.88
56719;BME280;42597;40.636;0.278;2022-08-03T03:01:57;97088.47;;;25.49;54.44
56719;BME280;42597;40.636;0.278;2022-08-03T03:04:25;97081.06;;;25.46;54.76
56719;BME280;42597;40.636;0.278;2022-08-03T03:06:52;97089.28;;;25.37;54.32
56719;BME280;42597;40.636;0.278;2022-08-03T03:09:19;97088.75;;;25.17;55.87
56719;BME280;42597;40.636;0.278;2022-08-03T03:11:45;97086.78;;;25.52;54.41
56719;BME280;42597;40.636;0.278;2022-08-03T03:14:13;97083.44;;;25.09;55.95
56719;BME280;42597;40.636;0.278;2022-08-03T03:16:40;97083.63;;;25.28;55.13
56719;BME280;42597;40.636;0.278;2022-08-03T03:19:10;97082.97;;;25.24;55.17
56719;BME280;42597;40.636;0.278;2022-08-03T03:21:37;97088.72;;;25.42;54.58
56719;BME280;42597;40.636;0.278;2022-08-03T03:24:04;97080.72;;;25.44;53.86
56719;BME280;42597;40.636;0.278;2022-08-03T03:26:31;97082.34;;;25.67;53.25
56719;BME280;42597;40.636;0.278;2022-08-03T03:28:57;97086.25;;;25.44;53.91
56719;BME280;42597;40.636;0.278;2022-08-03T03:31:22;97080.72;;;25.44;52.67
56719;BME280;42597;40.636;0.278;2022-08-03T03:33:48;97087.41;;;25.34;54.22
56719;BME280;42597;40.636;0.278;2022-08-03T03:36:14;97086.69;;;25.55;53.28
56719;BME280;42597;40.636;0.278;2022-08-03T03:38:39;97085.94;;;25.42;53.75
56719;BME280;42597;40.636;0.278;2022-08-03T03:41:05;97090.81;;;25.38;53.86
56719;BME280;42597;40.636;0.278;2022-08-03T03:43:31;97078.97;;;25.50;53.74
56719;BME280;42597;40.636;0.278;2022-08-03T03:45:57;97079.97;;;25.44;51.32
56719;BME280;42597;40.636;0.278;2022-08-03T03:48:24;97074.38;;;25.22;52.95
56719;BME280;42597;40.636;0.278;2022-08-03T03:50:50;97075.44;;;25.37;52.70
56719;BME280;42597;40.636;0.278;2022-08-03T03:53:15;97076.34;;;25.34;51.85
56719;BME280;42597;40.636;0.278;2022-08-03T03:55:41;97072.47;;;25.31;52.71
56719;BME280;42597;40.636;0.278;2022-08-03T03:58:07;97081.63;;;25.41;52.05
56719;BME280;42597;40.636;0.278;2022-08-03T04:00:33;97084.53;;;25.25;52.03
56719;BME280;42597;40.636;0.278;2022-08-03T04:02:59;97073.38;;;25.16;52.48
56719;BME280;42597;40.636;0.278;2022-08-03T04:05:24;97074.59;;;24.89;53.16
56719;BME280;42597;40.636;0.278;2022-08-03T04:08:16;97068.59;;;25.29;52.10
56719;BME280;42597;40.636;0.278;2022-08-03T04:13:50;97068.94;;;25.18;51.19
56719;BME280;42597;40.636;0.278;2022-08-03T04:16:20;97070.59;;;25.16;50.90
56719;BME280;42597;40.636;0.278;2022-08-03T04:18:51;97063.34;;;25.44;51.69
56719;BME280;42597;40.636;0.278;2022-08-03T04:21:19;97072.34;;;24.84;49.32
56719;BME280;42597;40.636;0.278;2022-08-03T04:23:49;97069.25;;;25.07;51.96
56719;BME280;42597;40.636;0.278;2022-08-03T04:26:19;97070.03;;;24.82;51.13
56719;BME280;42597;40.636;0.278;2022-08-03T04:28:46;97064.28;;;25.28;50.31
56719;BME280;42597;40.636;0.278;2022-08-03T04:31:14;97063.06;;;25.29;50.63
56719;BME280;42597;40.636;0.278;2022-08-03T04:33:42;97057.75;;;24.96;50.40
56719;BME280;42597;40.636;0.278;2022-08-03T04:36:16;97061.13;;;25.17;51.87
56719;BME280;42597;40.636;0.278;2022-08-03T04:38:54;97065.03;;;25.41;48.59
56719;BME280;42597;40.636;0.278;2022-08-03T04:41:23;97071.13;;;25.36;50.75
56719;BME280;42597;40.636;0.278;2022-08-03T04:43:53;97072.03;;;25.07;47.85
56719;BME280;42597;40.636;0.278;2022-08-03T04:46:22;97067.94;;;24.99;48.47
56719;BME280;42597;40.636;0.278;2022-08-03T04:48:50;97074.81;;;25.33;50.95
56719;BME280;42597;40.636;0.278;2022-08-03T04:51:16;97071.16;;;25.10;50.72
56719;BME280;42597;40.636;0.278;2022-08-03T04:53:42;97078.75;;;25.32;50.00
56719;BME280;42597;40.636;0.278;2022-08-03T04:56:08;97087.41;;;25.34;49.85
56719;BME280;42597;40.636;0.278;2022-08-03T04:58:34;97079.69;;;25.29;50.07
56719;BME280;42597;40.636;0.278;2022-08-03T05:01:00;97079.19;;;25.43;49.83
56719;BME280;42597;40.636;0.278;2022-08-03T05:03:25;97085.19;;;25.42;49.58
56719;BME280;42597;40.636;0.278;2022-08-03T05:05:52;97078.22;;;25.37;49.01
56719;BME280;42597;40.636;0.278;2022-08-03T05:08:18;97086.09;;;25.26;49.27
56719;BME280;42597;40.636;0.278;2022-08-03T05:10:43;97087.09;;;25.19;49.87
56719;BME280;42597;40.636;0.278;2022-08-03T05:13:09;97091.94;;;25.28;49.30
56719;BME280;42597;40.636;0.278;2022-08-03T05:15:37;97084.88;;;25.14;49.71
56719;BME280;42597;40.636;0.278;2022-08-03T05:18:03;97097.47;;;25.15;49.26
56719;BME280;42597;40.636;0.278;2022-08-03T05:20:28;97096.69;;;24.89;47.88
56719;BME280;42597;40.636;0.278;2022-08-03T05:22:55;97105.97;;;24.70;49.09
56719;BME280;42597;40.636;0.278;2022-08-03T05:25:22;97099.53;;;24.60;48.39
56719;BME280;42597;40.636;0.278;2022-08-03T05:27:47;97101.31;;;24.92;51.81
56719;BME280;42597;40.636;0.278;2022-08-03T05:30:14;97094.16;;;24.95;49.18
56719;BME280;42597;40.636;0.278;2022-08-03T05:32:40;97107.31;;;24.78;50.43
56719;BME280;42597;40.636;0.278;2022-08-03T05:35:06;97101.47;;;25.14;48.11
56719;BME280;42597;40.636;0.278;2022-08-03T05:37:31;97107.50;;;24.96;49.13
56719;BME280;42597;40.636;0.278;2022-08-03T05:39:57;97112.63;;;25.10;50.00
56719;BME280;42597;40.636;0.278;2022-08-03T05:42:23;97109.72;;;24.76;48.46
56719;BME280;42597;40.636;0.278;2022-08-03T05:44:49;97120.13;;;24.97;47.25
56719;BME280;42597;40.636;0.278;2022-08-03T05:47:14;97115.72;;;25.38;47.39
56719;BME280;42597;40.636;0.278;2022-08-03T05:49:40;97122.69;;;25.43;46.84
56719;BME280;42597;40.636;0.278;2022-08-03T05:52:06;97118.75;;;25.66;47.13
56719;BME280;42597;40.636;0.278;2022-08-03T05:54:31;97120.50;;;25.85;47.51
56719;BME280;42597;40.636;0.278;2022-08-03T05:56:57;97121.81;;;25.93;48.60
56719;BME280;42597;40.636;0.278;2022-08-03T05:59:23;97125.78;;;25.92;49.91
56719;BME280;42597;40.636;0.278;2022-08-03T06:01:50;97115.94;;;25.91;47.20
56719;BME280;42597;40.636;0.278;2022-08-03T06:04:15;97117.41;;;25.83;48.58
56719;BME280;42597;40.636;0.278;2022-08-03T06:06:41;97114.22;;;26.06;48.38
56719;BME280;42597;40.636;0.278;2022-08-03T06:09:08;97115.50;;;26.15;48.21
56719;BME280;42597;40.636;0.278;2022-08-03T06:11:35;97115.41;;;26.18;47.48
56719;BME280;42597;40.636;0.278;2022-08-03T06:14:01;97121.44;;;26.26;45.99
56719;BME280;42597;40.636;0.278;2022-08-03T06:16:26;97123.03;;;26.36;47.46
56719;BME280;42597;40.636;0.278;2022-08-03T06:18:52;97123.28;;;26.29;46.56
56719;BME280;42597;40.636;0.278;2022-08-03T06:21:18;97124.78;;;26.21;48.19
56719;BME280;42597;40.636;0.278;2022-08-03T06:23:44;97123.00;;;26.49;47.42
56719;BME280;42597;40.636;0.278;2022-08-03T06:26:10;97129.16;;;26.09;48.91
56719;BME280;42597;40.636;0.278;2022-08-03T06:28:36;97127.09;;;26.44;46.45
56719;BME280;42597;40.636;0.278;2022-08-03T06:31:02;97125.81;;;26.36;44.80
56719;BME280;42597;40.636;0.278;2022-08-03T06:33:28;97124.94;;;26.17;48.42
56719;BME280;42597;40.636;0.278;2022-08-03T06:35:54;97126.88;;;26.51;46.38
56719;BME280;42597;40.636;0.278;2022-08-03T06:38:19;97126.63;;;26.58;43.79
56719;BME280;42597;40.636;0.278;2022-08-03T06:40:45;97130.97;;;26.69;43.64
56719;BME280;42597;40.636;0.278;2022-08-03T06:43:11;97131.09;;;26.87;45.72
56719;BME280;42597;40.636;0.278;2022-08-03T06:45:38;97132.13;;;26.80;44.69
56719;BME280;42597;40.636;0.278;2022-08-03T06:48:08;97132.00;;;27.15;42.60
56719;BME280;42597;40.636;0.278;2022-08-03T06:50:36;97137.63;;;27.02;43.41
56719;BME280;42597;40.636;0.278;2022-08-03T06:53:03;97141.56;;;27.14;45.73
56719;BME280;42597;40.636;0.278;2022-08-03T06:55:30;97136.66;;;27.27;42.23
56719;BME280;42597;40.636;0.278;2022-08-03T06:57:57;97139.66;;;27.51;43.17
56719;BME280;42597;40.636;0.278;2022-08-03T07:00:23;97140.91;;;27.60;43.82
56719;BME280;42597;40.636;0.278;2022-08-03T07:02:49;97139.28;;;27.80;44.21
56719;BME280;42597;40.636;0.278;2022-08-03T07:05:15;97142.22;;;28.04;43.57
56719;BME280;42597;40.636;0.278;2022-08-03T07:07:41;97133.59;;;28.12;43.62
56719;BME280;42597;40.636;0.278;2022-08-03T07:10:08;97143.47;;;28.13;43.47
56719;BME280;42597;40.636;0.278;2022-08-03T07:12:34;97146.69;;;28.29;42.25
56719;BME280;42597;40.636;0.278;2022-08-03T07:15:01;97144.25;;;28.50;41.62
56719;BME280;42597;40.636;0.278;2022-08-03T07:17:29;97146.25;;;28.59;42.75
56719;BME280;42597;40.636;0.278;2022-08-03T07:19:55;97136.66;;;28.14;47.65
56719;BME280;42597;40.636;0.278;2022-08-03T07:22:21;97141.28;;;28.53;49.27
56719;BME280;42597;40.636;0.278;2022-08-03T07:24:46;97140.03;;;28.73;47.99
56719;BME280;42597;40.636;0.278;2022-08-03T07:27:12;97140.63;;;28.77;44.68
56719;BME280;42597;40.636;0.278;2022-08-03T07:29:37;97144.03;;;28.81;45.55
56719;BME280;42597;40.636;0.278;2022-08-03T07:32:04;97142.75;;;29.00;46.88
56719;BME280;42597;40.636;0.278;2022-08-03T07:34:30;97138.41;;;29.09;47.35
56719;BME280;42597;40.636;0.278;2022-08-03T07:36:56;97142.28;;;29.11;45.75
56719;BME280;42597;40.636;0.278;2022-08-03T07:39:22;97146.63;;;29.03;45.47
56719;BME280;42597;40.636;0.278;2022-08-03T07:41:47;97141.72;;;29.31;43.85
56719;BME280;42597;40.636;0.278;2022-08-03T07:44:19;97143.63;;;29.49;43.14
56719;BME280;42597;40.636;0.278;2022-08-03T07:46:45;97149.66;;;29.57;42.42
56719;BME280;42597;40.636;0.278;2022-08-03T07:49:11;97144.31;;;29.68;42.88
56719;BME280;42597;40.636;0.278;2022-08-03T07:51:37;97146.13;;;29.71;43.67
56719;BME280;42597;40.636;0.278;2022-08-03T07:54:02;97139.81;;;29.70;44.88
56719;BME280;42597;40.636;0.278;2022-08-03T07:56:29;97145.16;;;29.83;45.88
56719;BME280;42597;40.636;0.278;2022-08-03T07:58:55;97141.94;;;29.99;45.33
56719;BME280;42597;40.636;0.278;2022-08-03T08:01:21;97135.56;;;30.23;45.08
56719;BME280;42597;40.636;0.278;2022-08-03T08:03:48;97137.84;;;29.86;46.47
56719;BME280;42597;40.636;0.278;2022-08-03T08:06:14;97136.13;;;29.88;45.72
56719;BME280;42597;40.636;0.278;2022-08-03T08:08:41;97143.59;;;29.82;46.09
56719;BME280;42597;40.636;0.278;2022-08-03T08:11:06;97137.78;;;29.71;44.58
56719;BME280;42597;40.636;0.278;2022-08-03T08:13:32;97139.38;;;29.87;45.66
56719;BME280;42597;40.636;0.278;2022-08-03T08:15:58;97139.38;;;30.49;44.15
56719;BME280;42597;40.636;0.278;2022-08-03T08:18:24;97145.38;;;30.18;45.35
56719;BME280;42597;40.636;0.278;2022-08-03T08:20:50;97151.06;;;30.24;45.16
56719;BME280;42597;40.636;0.278;2022-08-03T08:23:16;97143.94;;;30.23;45.35
56719;BME280;42597;40.636;0.278;2022-08-03T08:25:47;97155.34;;;30.64;46.20
56719;BME280;42597;40.636;0.278;2022-08-03T08:28:13;97153.59;;;30.66;47.37
56719;BME280;42597;40.636;0.278;2022-08-03T08:30:39;97148.53;;;30.94;45.67
56719;BME280;42597;40.636;0.278;2022-08-03T08:33:05;97149.78;;;30.93;46.06
56719;BME280;42597;40.636;0.278;2022-08-03T08:35:30;97155.47;;;30.84;45.48
56719;BME280;42597;40.636;0.278;2022-08-03T08:37:58;97150.03;;;31.25;43.89
56719;BME280;42597;40.636;0.278;2022-08-03T08:40:25;97148.84;;;30.96;45.19
56719;BME280;42597;40.636;0.278;2022-08-03T08:42:51;97151.13;;;31.13;45.23
56719;BME280;42597;40.636;0.278;2022-08-03T08:45:17;97153.22;;;31.18;44.78
56719;BME280;42597;40.636;0.278;2022-08-03T08:47:45;97150.75;;;31.05;43.28
56719;BME280;42597;40.636;0.278;2022-08-03T08:50:15;97152.81;;;31.25;42.84
56719;BME280;42597;40.636;0.278;2022-08-03T08:52:42;97156.38;;;31.40;42.16
56719;BME280;42597;40.636;0.278;2022-08-03T08:55:14;97154.56;;;31.22;41.63
56719;BME280;42597;40.636;0.278;2022-08-03T08:57:46;97160.16;;;31.37;40.18
56719;BME280;42597;40.636;0.278;2022-08-03T09:00:13;97160.81;;;31.67;38.70
56719;BME280;42597;40.636;0.278;2022-08-03T09:02:43;97164.19;;;31.07;41.63
56719;BME280;42597;40.636;0.278;2022-08-03T09:05:16;97164.34;;;31.48;42.06
56719;BME280;42597;40.636;0.278;2022-08-03T09:07:44;97156.38;;;31.40;42.13
56719;BME280;42597;40.636;0.278;2022-08-03T09:10:12;97155.03;;;31.71;42.11
56719;BME280;42597;40.636;0.278;2022-08-03T09:12:42;97158.41;;;31.95;41.58
56719;BME280;42597;40.636;0.278;2022-08-03T09:15:26;97162.84;;;31.17;42.78
56719;BME280;42597;40.636;0.278;2022-08-03T09:17:54;97158.75;;;31.48;44.75
56719;BME280;42597;40.636;0.278;2022-08-03T09:20:22;97155.34;;;32.14;43.80
56719;BME280;42597;40.636;0.278;2022-08-03T09:25:26;97167.47;;;31.35;46.12
56719;BME280;42597;40.636;0.278;2022-08-03T09:27:52;97164.16;;;32.07;45.49
56719;BME280;42597;40.636;0.278;2022-08-03T09:30:18;97167.53;;;31.76;47.61
56719;BME280;42597;40.636;0.278;2022-08-03T09:32:44;97161.66;;;32.09;47.25
56719;BME280;42597;40.636;0.278;2022-08-03T09:35:14;97166.44;;;31.88;46.99
56719;BME280;42597;40.636;0.278;2022-08-03T09:37:40;97170.31;;;31.90;44.23
56719;BME280;42597;40.636;0.278;2022-08-03T09:40:06;97173.47;;;31.83;46.34
56719;BME280;42597;40.636;0.278;2022-08-03T09:42:32;97169.59;;;31.95;46.33
56719;BME280;42597;40.636;0.278;2022-08-03T09:45:03;97170.03;;;31.88;47.61
56719;BME280;42597;40.636;0.278;2022-08-03T09:47:31;97164.47;;;31.38;49.56
56719;BME280;42597;40.636;0.278;2022-08-03T09:50:05;97162.31;;;32.24;48.13
56719;BME280;42597;40.636;0.278;2022-08-03T09:52:32;97160.50;;;32.41;47.37
56719;BME280;42597;40.636;0.278;2022-08-03T09:54:59;97169.28;;;32.55;47.02
56719;BME280;42597;40.636;0.278;2022-08-03T09:57:27;97162.69;;;32.84;46.74
56719;BME280;42597;40.636;0.278;2022-08-03T10:00:05;97160.66;;;32.12;48.88
56719;BME280;42597;40.636;0.278;2022-08-03T10:02:34;97163.44;;;31.91;48.14
56719;BME280;42597;40.636;0.278;2022-08-03T10:05:00;97154.03;;;32.09;46.98
56719;BME280;42597;40.636;0.278;2022-08-03T10:07:25;97154.63;;;31.78;46.06
56719;BME280;42597;40.636;0.278;2022-08-03T10:09:59;97155.13;;;32.64;47.46
56719;BME280;42597;40.636;0.278;2022-08-03T10:12:26;97156.44;;;32.42;47.92
56719;BME280;42597;40.636;0.278;2022-08-03T10:14:52;97153.22;;;32.29;47.48
56719;BME280;42597;40.636;0.278;2022-08-03T10:17:19;97145.41;;;32.33;47.92
56719;BME280;42597;40.636;0.278;2022-08-03T10:19:45;97147.88;;;32.52;47.16
56719;BME280;42597;40.636;0.278;2022-08-03T10:22:26;97148.13;;;32.74;46.08
56719;BME280;42597;40.636;0.278;2022-08-03T10:27:31;97145.66;;;32.56;49.99
56719;BME280;42597;40.636;0.278;2022-08-03T10:30:00;97149.03;;;32.39;50.37
56719;BME280;42597;40.636;0.278;2022-08-03T10:32:30;97147.41;;;32.53;50.59
56719;BME280;42597;40.636;0.278;2022-08-03T10:35:07;97150.13;;;32.48;51.47
56719;BME280;42597;40.636;0.278;2022-08-03T10:37:44;97147.03;;;32.66;50.16
56719;BME280;42597;40.636;0.278;2022-08-03T10:40:14;97144.66;;;32.59;51.93
56719;BME280;42597;40.636;0.278;2022-08-03T10:42:44;97143.31;;;32.49;52.51
56719;BME280;42597;40.636;0.278;2022-08-03T10:45:24;97145.25;;;32.42;53.00
56719;BME280;42597;40.636;0.278;2022-08-03T10:47:51;97145.28;;;32.22;54.52
56719;BME280;42597;40.636;0.278;2022-08-03T10:50:18;97144.91;;;32.35;54.70
56719;BME280;42597;40.636;0.278;2022-08-03T10:53:01;97144.97;;;31.09;52.98
56719;BME280;42597;40.636;0.278;2022-08-03T10:55:37;97148.41;;;32.30;54.03
56719;BME280;42597;40.636;0.278;2022-08-03T11:01:04;97134.91;;;32.49;53.38
56719;BME280;42597;40.636;0.278;2022-08-03T11:03:30;97129.78;;;32.47;53.58
56719;BME280;42597;40.636;0.278;2022-08-03T11:06:29;97133.28;;;32.68;53.38
56719;BME280;42597;40.636;0.278;2022-08-03T11:11:36;97126.09;;;32.87;52.11
56719;BME280;42597;40.636;0.278;2022-08-03T11:14:05;97133.50;;;32.38;53.63
56719;BME280;42597;40.636;0.278;2022-08-03T11:16:36;97120.44;;;32.30;53.31
56719;BME280;42597;40.636;0.278;2022-08-03T11:19:04;97121.84;;;32.40;53.44
56719;BME280;42597;40.636;0.278;2022-08-03T11:27:25;97112.16;;;31.94;53.10
56719;BME280;42597;40.636;0.278;2022-08-03T11:30:05;97114.22;;;32.66;52.87
56719;BME280;42597;40.636;0.278;2022-08-03T11:35:25;97110.81;;;32.88;52.06
56719;BME280;42597;40.636;0.278;2022-08-03T11:43:07;97104.88;;;32.75;52.49
56719;BME280;42597;40.636;0.278;2022-08-03T11:45:35;97107.81;;;32.92;51.86
56719;BME280;42597;40.636;0.278;2022-08-03T11:48:13;97094.66;;;32.98;50.78
56719;BME280;42597;40.636;0.278;2022-08-03T11:50:40;97102.31;;;33.03;50.51
56719;BME280;42597;40.636;0.278;2022-08-03T11:53:07;97095.84;;;32.91;50.44
56719;BME280;42597;40.636;0.278;2022-08-03T11:55:38;97096.66;;;32.66;51.40
56719;BME280;42597;40.636;0.278;2022-08-03T11:58:06;97100.03;;;33.02;50.63
56719;BME280;42597;40.636;0.278;2022-08-03T12:00:31;97095.72;;;33.01;50.78
56719;BME280;42597;40.636;0.278;2022-08-03T12:03:01;97086.94;;;32.09;51.70
56719;BME280;42597;40.636;0.278;2022-08-03T12:05:35;97095.31;;;32.87;51.11
56719;BME280;42597;40.636;0.278;2022-08-03T12:08:01;97092.16;;;32.74;51.55
56719;BME280;42597;40.636;0.278;2022-08-03T12:10:27;97093.59;;;33.70;49.65
56719;BME280;42597;40.636;0.278;2022-08-03T12:12:58;97092.91;;;33.44;49.21
56719;BME280;42597;40.636;0.278;2022-08-03T12:15:29;97085.38;;;33.18;49.67
56719;BME280;42597;40.636;0.278;2022-08-03T12:17:56;97085.16;;;33.27;49.67
56719;BME280;42597;40.636;0.278;2022-08-03T12:20:25;97094.91;;;32.68;51.47
56719;BME280;42597;40.636;0.278;2022-08-03T12:22:51;97092.16;;;32.74;51.80
56719;BME280;42597;40.636;0.278;2022-08-03T12:25:25;97083.91;;;33.28;50.27
56719;BME280;42597;40.636;0.278;2022-08-03T12:27:52;97091.38;;;32.74;51.08
56719;BME280;42597;40.636;0.278;2022-08-03T12:30:18;97097.41;;;32.92;51.66
56719;BME280;42597;40.636;0.278;2022-08-03T12:32:44;97088.38;;;33.09;51.52
56719;BME280;42597;40.636;0.278;2022-08-03T12:35:21;97092.66;;;32.00;55.12
56719;BME280;42597;40.636;0.278;2022-08-03T12:37:50;97087.72;;;32.62;49.45
56719;BME280;42597;40.636;0.278;2022-08-03T12:40:24;97080.31;;;33.22;51.59
56719;BME280;42597;40.636;0.278;2022-08-03T12:42:51;97089.06;;;32.72;52.68
56719;BME280;42597;40.636;0.278;2022-08-03T12:45:25;97089.28;;;32.95;52.32
56719;BME280;42597;40.636;0.278;2022-08-03T12:47:57;97090.63;;;32.21;53.67
56719;BME280;42597;40.636;0.278;2022-08-03T12:50:31;97097.47;;;32.98;53.21
56719;BME280;42597;40.636;0.278;2022-08-03T12:53:00;97095.69;;;32.69;54.46
56719;BME280;42597;40.636;0.278;2022-08-03T12:55:25;97091.16;;;32.77;54.29
56719;BME280;42597;40.636;0.278;2022-08-03T12:58:02;97086.31;;;32.00;50.62
56719;BME280;42597;40.636;0.278;2022-08-03T13:00:28;97082.38;;;32.64;54.85
56719;BME280;42597;40.636;0.278;2022-08-03T13:03:03;97083.78;;;32.80;54.66
56719;BME280;42597;40.636;0.278;2022-08-03T13:05:29;97088.19;;;32.86;52.90
56719;BME280;42597;40.636;0.278;2022-08-03T13:07:55;97089.31;;;33.37;53.14
56719;BME280;42597;40.636;0.278;2022-08-03T13:10:32;97099.53;;;32.46;54.81
56719;BME280;42597;40.636;0.278;2022-08-03T13:12:58;97087.53;;;32.71;54.86
56719;BME280;42597;40.636;0.278;2022-08-03T13:15:26;97089.69;;;32.87;54.71
56719;BME280;42597;40.636;0.278;2022-08-03T13:17:54;97089.16;;;32.83;54.95
56719;BME280;42597;40.636;0.278;2022-08-03T13:20:20;97093.09;;;32.39;55.11
56719;BME280;42597;40.636;0.278;2022-08-03T13:22:46;97088.25;;;32.14;57.55
56719;BME280;42597;40.636;0.278;2022-08-03T13:25:13;97085.25;;;32.43;55.98
56719;BME280;42597;40.636;0.278;2022-08-03T13:27:39;97082.50;;;32.75;55.46
56719;BME280;42597;40.636;0.278;2022-08-03T13:30:06;97079.13;;;32.97;53.91
56719;BME280;42597;40.636;0.278;2022-08-03T13:32:33;97078.13;;;32.42;56.35
56719;BME280;42597;40.636;0.278;2022-08-03T13:34:59;97075.25;;;32.63;56.74
56719;BME280;42597;40.636;0.278;2022-08-03T13:37:27;97078.59;;;32.93;55.81
56719;BME280;42597;40.636;0.278;2022-08-03T13:39:52;97074.06;;;32.70;56.25
56719;BME280;42597;40.636;0.278;2022-08-03T13:42:18;97083.22;;;32.44;56.79
56719;BME280;42597;40.636;0.278;2022-08-03T13:44:44;97075.38;;;32.74;56.50